sensor_id;sensor_type;location;lat;lon;timestamp;temperature;humidity
44111;DHT22;29774;52.664;5.074;2022-07-23T00:01:21;23.80;52.30
44111;DHT22;29774;52.664;5.074;2022-07-23T00:03:50;23.80;52.30
44111;DHT22;29774;52.664;5.074;2022-07-23T00:06:17;23.80;52.30
44111;DHT22;29774;52.664;5.074;2022-07-23T00:08:43;23.80;52.40
44111;DHT22;29774;52.664;5.074;2022-07-23T00:11:08;23.80;52.40
44111;DHT22;29774;52.664;5.074;2022-07-23T00:13:34;23.70;52.30
44111;DHT22;29774;52.664;5.074;2022-07-23T00:16:00;23.80;52.30
44111;DHT22;29774;52.664;5.074;2022-07-23T00:18:25;23.70;52.30
44111;DHT22;29774;52.664;5.074;2022-07-23T00:20:51;23.80;52.20
44111;DHT22;29774;52.664;5.074;2022-07-23T00:23:17;23.80;52.10
44111;DHT22;29774;52.664;5.074;2022-07-23T00:25:43;23.80;52.10
44111;DHT22;29774;52.664;5.074;2022-07-23T00:28:08;23.80;52.20
44111;DHT22;29774;52.664;5.074;2022-07-23T00:30:34;23.80;52.20
44111;DHT22;29774;52.664;5.074;2022-07-23T00:33:03;23.70;52.30
44111;DHT22;29774;52.664;5.074;2022-07-23T00:35:34;23.70;52.30
44111;DHT22;29774;52.664;5.074;2022-07-23T00:38:00;23.70;52.30
44111;DHT22;29774;52.664;5.074;2022-07-23T00:40:27;23.70;52.30
44111;DHT22;29774;52.664;5.074;2022-07-23T00:42:53;23.70;52.40
44111;DHT22;29774;52.664;5.074;2022-07-23T00:45:19;23.70;52.30
44111;DHT22;29774;52.664;5.074;2022-07-23T00:47:45;23.60;52.40
44111;DHT22;29774;52.664;5.074;2022-07-23T00:50:12;23.70;52.40
44111;DHT22;29774;52.664;5.074;2022-07-23T00:52:39;23.70;52.30
44111;DHT22;29774;52.664;5.074;2022-07-23T00:55:07;23.70;52.30
44111;DHT22;29774;52.664;5.074;2022-07-23T00:57:33;23.70;52.30
44111;DHT22;29774;52.664;5.074;2022-07-23T00:59:58;23.70;52.20
44111;DHT22;29774;52.664;5.074;2022-07-23T01:02:27;23.70;52.20
44111;DHT22;29774;52.664;5.074;2022-07-23T01:04:53;23.70;52.20
44111;DHT22;29774;52.664;5.074;2022-07-23T01:07:19;23.70;52.20
44111;DHT22;29774;52.664;5.074;2022-07-23T01:09:46;23.60;52.30
44111;DHT22;29774;52.664;5.074;2022-07-23T01:12:11;23.70;52.20
44111;DHT22;29774;52.664;5.074;2022-07-23T01:14:37;23.70;52.20
44111;DHT22;29774;52.664;5.074;2022-07-23T01:17:03;23.60;52.30
44111;DHT22;29774;52.664;5.074;2022-07-23T01:19:28;23.60;52.30
44111;DHT22;29774;52.664;5.074;2022-07-23T01:21:56;23.60;52.30
44111;DHT22;29774;52.664;5.074;2022-07-23T01:24:22;23.50;52.30
44111;DHT22;29774;52.664;5.074;2022-07-23T01:26:48;23.60;52.30
44111;DHT22;29774;52.664;5.074;2022-07-23T01:29:15;23.60;52.30
44111;DHT22;29774;52.664;5.074;2022-07-23T01:31:42;23.50;52.30
44111;DHT22;29774;52.664;5.074;2022-07-23T01:34:08;23.60;52.10
44111;DHT22;29774;52.664;5.074;2022-07-23T01:36:35;23.70;52.00
44111;DHT22;29774;52.664;5.074;2022-07-23T01:39:01;23.60;52.10
44111;DHT22;29774;52.664;5.074;2022-07-23T01:41:27;23.60;52.20
44111;DHT22;29774;52.664;5.074;2022-07-23T01:43:52;23.50;52.20
44111;DHT22;29774;52.664;5.074;2022-07-23T01:46:18;23.50;52.20
44111;DHT22;29774;52.664;5.074;2022-07-23T01:48:43;23.50;52.20
44111;DHT22;29774;52.664;5.074;2022-07-23T01:51:09;23.50;52.30
44111;DHT22;29774;52.664;5.074;2022-07-23T01:53:35;23.50;52.30
44111;DHT22;29774;52.664;5.074;2022-07-23T01:56:01;23.50;52.30
44111;DHT22;29774;52.664;5.074;2022-07-23T01:58:27;23.50;52.30
44111;DHT22;29774;52.664;5.074;2022-07-23T02:00:53;23.40;52.30
44111;DHT22;29774;52.664;5.074;2022-07-23T02:03:19;23.40;52.30
44111;DHT22;29774;52.664;5.074;2022-07-23T02:05:45;23.40;52.30
44111;DHT22;29774;52.664;5.074;2022-07-23T02:08:10;23.50;52.20
44111;DHT22;29774;52.664;5.074;2022-07-23T02:10:36;23.50;52.10
44111;DHT22;29774;52.664;5.074;2022-07-23T02:13:02;23.50;52.10
44111;DHT22;29774;52.664;5.074;2022-07-23T02:15:27;23.50;52.10
44111;DHT22;29774;52.664;5.074;2022-07-23T02:17:54;23.50;52.10
44111;DHT22;29774;52.664;5.074;2022-07-23T02:20:20;23.40;52.20
44111;DHT22;29774;52.664;5.074;2022-07-23T02:22:45;23.40;52.20
44111;DHT22;29774;52.664;5.074;2022-07-23T02:25:11;23.40;52.30
44111;DHT22;29774;52.664;5.074;2022-07-23T02:27:37;23.40;52.30
44111;DHT22;29774;52.664;5.074;2022-07-23T02:30:03;23.40;52.30
44111;DHT22;29774;52.664;5.074;2022-07-23T02:32:29;23.30;52.30
44111;DHT22;29774;52.664;5.074;2022-07-23T02:34:54;23.30;52.30
44111;DHT22;29774;52.664;5.074;2022-07-23T02:37:20;23.30;52.30
44111;DHT22;29774;52.664;5.074;2022-07-23T02:39:45;23.30;52.30
44111;DHT22;29774;52.664;5.074;2022-07-23T02:42:11;23.30;52.20
44111;DHT22;29774;52.664;5.074;2022-07-23T02:44:36;23.40;52.20
44111;DHT22;29774;52.664;5.074;2022-07-23T02:47:02;23.40;52.10
44111;DHT22;29774;52.664;5.074;2022-07-23T02:49:27;23.40;52.00
44111;DHT22;29774;52.664;5.074;2022-07-23T02:51:53;23.40;52.00
44111;DHT22;29774;52.664;5.074;2022-07-23T02:54:19;23.30;52.10
44111;DHT22;29774;52.664;5.074;2022-07-23T02:56:44;23.30;52.20
44111;DHT22;29774;52.664;5.074;2022-07-23T02:59:10;23.30;52.20
44111;DHT22;29774;52.664;5.074;2022-07-23T03:01:36;23.30;52.30
44111;DHT22;29774;52.664;5.074;2022-07-23T03:04:01;23.20;52.30
44111;DHT22;29774;52.664;5.074;2022-07-23T03:06:27;23.20;52.30
44111;DHT22;29774;52.664;5.074;2022-07-23T03:08:53;23.20;52.40
44111;DHT22;29774;52.664;5.074;2022-07-23T03:11:18;23.20;52.40
44111;DHT22;29774;52.664;5.074;2022-07-23T03:13:44;23.20;52.30
44111;DHT22;29774;52.664;5.074;2022-07-23T03:16:09;23.20;52.40
44111;DHT22;29774;52.664;5.074;2022-07-23T03:18:35;23.20;52.30
44111;DHT22;29774;52.664;5.074;2022-07-23T03:21:01;23.30;52.20
44111;DHT22;29774;52.664;5.074;2022-07-23T03:23:27;23.30;52.10
44111;DHT22;29774;52.664;5.074;2022-07-23T03:25:52;23.30;52.00
44111;DHT22;29774;52.664;5.074;2022-07-23T03:28:18;23.30;52.10
44111;DHT22;29774;52.664;5.074;2022-07-23T03:30:45;23.20;52.20
44111;DHT22;29774;52.664;5.074;2022-07-23T03:33:12;23.20;52.20
44111;DHT22;29774;52.664;5.074;2022-07-23T03:35:38;23.20;52.20
44111;DHT22;29774;52.664;5.074;2022-07-23T03:38:04;23.20;52.30
44111;DHT22;29774;52.664;5.074;2022-07-23T03:40:29;23.20;52.30
44111;DHT22;29774;52.664;5.074;2022-07-23T03:42:55;23.10;52.30
44111;DHT22;29774;52.664;5.074;2022-07-23T03:45:20;23.10;52.30
44111;DHT22;29774;52.664;5.074;2022-07-23T03:47:46;23.10;52.40
44111;DHT22;29774;52.664;5.074;2022-07-23T03:50:12;23.10;52.40
44111;DHT22;29774;52.664;5.074;2022-07-23T03:52:37;23.10;52.40
44111;DHT22;29774;52.664;5.074;2022-07-23T03:55:03;23.10;52.30
44111;DHT22;29774;52.664;5.074;2022-07-23T03:57:29;23.10;52.30
44111;DHT22;29774;52.664;5.074;2022-07-23T03:59:55;23.20;52.20
44111;DHT22;29774;52.664;5.074;2022-07-23T04:02:20;23.20;52.10
44111;DHT22;29774;52.664;5.074;2022-07-23T04:04:46;23.20;52.00
44111;DHT22;29774;52.664;5.074;2022-07-23T04:07:12;23.20;52.10
44111;DHT22;29774;52.664;5.074;2022-07-23T04:09:38;23.10;52.20
44111;DHT22;29774;52.664;5.074;2022-07-23T04:12:06;23.10;52.20
44111;DHT22;29774;52.664;5.074;2022-07-23T04:14:32;23.10;52.30
44111;DHT22;29774;52.664;5.074;2022-07-23T04:16:58;23.10;52.30
44111;DHT22;29774;52.664;5.074;2022-07-23T04:19:23;23.10;52.30
44111;DHT22;29774;52.664;5.074;2022-07-23T04:21:49;23.00;52.30
44111;DHT22;29774;52.664;5.074;2022-07-23T04:24:14;23.00;52.40
44111;DHT22;29774;52.664;5.074;2022-07-23T04:26:40;23.00;52.40
44111;DHT22;29774;52.664;5.074;2022-07-23T04:29:05;23.00;52.40
44111;DHT22;29774;52.664;5.074;2022-07-23T04:31:31;23.00;52.40
44111;DHT22;29774;52.664;5.074;2022-07-23T04:33:56;23.00;52.40
44111;DHT22;29774;52.664;5.074;2022-07-23T04:36:22;23.10;52.20
44111;DHT22;29774;52.664;5.074;2022-07-23T04:38:48;23.10;52.20
44111;DHT22;29774;52.664;5.074;2022-07-23T04:41:13;23.20;52.00
44111;DHT22;29774;52.664;5.074;2022-07-23T04:43:39;23.10;52.10
44111;DHT22;29774;52.664;5.074;2022-07-23T04:46:05;23.10;52.30
44111;DHT22;29774;52.664;5.074;2022-07-23T04:48:31;23.00;52.30
44111;DHT22;29774;52.664;5.074;2022-07-23T04:50:57;23.00;52.40
44111;DHT22;29774;52.664;5.074;2022-07-23T04:53:23;23.00;52.50
44111;DHT22;29774;52.664;5.074;2022-07-23T04:55:48;22.90;52.40
44111;DHT22;29774;52.664;5.074;2022-07-23T04:58:14;23.00;52.50
44111;DHT22;29774;52.664;5.074;2022-07-23T05:00:40;22.90;52.40
44111;DHT22;29774;52.664;5.074;2022-07-23T05:03:05;22.90;52.50
44111;DHT22;29774;52.664;5.074;2022-07-23T05:05:31;22.90;52.50
44111;DHT22;29774;52.664;5.074;2022-07-23T05:07:56;22.90;52.60
44111;DHT22;29774;52.664;5.074;2022-07-23T05:10:22;22.90;52.60
44111;DHT22;29774;52.664;5.074;2022-07-23T05:12:49;23.00;52.50
44111;DHT22;29774;52.664;5.074;2022-07-23T05:15:14;23.00;52.30
44111;DHT22;29774;52.664;5.074;2022-07-23T05:17:40;23.00;52.30
44111;DHT22;29774;52.664;5.074;2022-07-23T05:20:06;23.10;52.20
44111;DHT22;29774;52.664;5.074;2022-07-23T05:22:31;23.00;52.40
44111;DHT22;29774;52.664;5.074;2022-07-23T05:24:57;23.00;52.40
44111;DHT22;29774;52.664;5.074;2022-07-23T05:27:23;22.80;52.70
44111;DHT22;29774;52.664;5.074;2022-07-23T05:29:48;22.80;52.80
44111;DHT22;29774;52.664;5.074;2022-07-23T05:32:14;22.80;52.90
44111;DHT22;29774;52.664;5.074;2022-07-23T05:34:39;22.70;53.00
44111;DHT22;29774;52.664;5.074;2022-07-23T05:37:05;22.70;53.30
44111;DHT22;29774;52.664;5.074;2022-07-23T05:39:31;22.60;53.40
44111;DHT22;29774;52.664;5.074;2022-07-23T05:41:57;22.60;53.40
44111;DHT22;29774;52.664;5.074;2022-07-23T05:44:23;22.60;53.40
44111;DHT22;29774;52.664;5.074;2022-07-23T05:46:48;22.50;53.40
44111;DHT22;29774;52.664;5.074;2022-07-23T05:49:14;22.60;53.50
44111;DHT22;29774;52.664;5.074;2022-07-23T05:51:39;22.50;53.60
44111;DHT22;29774;52.664;5.074;2022-07-23T05:54:05;22.50;53.50
44111;DHT22;29774;52.664;5.074;2022-07-23T05:56:31;22.50;53.50
44111;DHT22;29774;52.664;5.074;2022-07-23T05:58:56;22.50;53.60
44111;DHT22;29774;52.664;5.074;2022-07-23T06:01:22;22.40;53.60
44111;DHT22;29774;52.664;5.074;2022-07-23T06:03:47;22.40;53.70
44111;DHT22;29774;52.664;5.074;2022-07-23T06:06:13;22.30;53.90
44111;DHT22;29774;52.664;5.074;2022-07-23T06:08:38;22.30;53.90
44111;DHT22;29774;52.664;5.074;2022-07-23T06:11:04;22.40;53.90
44111;DHT22;29774;52.664;5.074;2022-07-23T06:13:29;22.20;54.30
44111;DHT22;29774;52.664;5.074;2022-07-23T06:15:55;22.30;54.10
44111;DHT22;29774;52.664;5.074;2022-07-23T06:18:20;22.20;54.20
44111;DHT22;29774;52.664;5.074;2022-07-23T06:20:46;22.30;54.00
44111;DHT22;29774;52.664;5.074;2022-07-23T06:23:12;22.30;54.00
44111;DHT22;29774;52.664;5.074;2022-07-23T06:25:38;22.30;54.10
44111;DHT22;29774;52.664;5.074;2022-07-23T06:28:03;22.30;54.00
44111;DHT22;29774;52.664;5.074;2022-07-23T06:30:29;22.20;54.20
44111;DHT22;29774;52.664;5.074;2022-07-23T06:32:55;22.30;54.10
44111;DHT22;29774;52.664;5.074;2022-07-23T06:35:21;22.30;54.10
44111;DHT22;29774;52.664;5.074;2022-07-23T06:37:46;22.30;54.30
44111;DHT22;29774;52.664;5.074;2022-07-23T06:40:12;22.20;54.30
44111;DHT22;29774;52.664;5.074;2022-07-23T06:42:38;22.20;54.70
44111;DHT22;29774;52.664;5.074;2022-07-23T06:45:05;22.20;54.50
44111;DHT22;29774;52.664;5.074;2022-07-23T06:47:31;21.90;54.50
44111;DHT22;29774;52.664;5.074;2022-07-23T06:49:57;22.00;54.60
44111;DHT22;29774;52.664;5.074;2022-07-23T06:52:22;22.20;54.20
44111;DHT22;29774;52.664;5.074;2022-07-23T06:54:48;22.20;53.20
44111;DHT22;29774;52.664;5.074;2022-07-23T06:57:14;22.20;54.30
44111;DHT22;29774;52.664;5.074;2022-07-23T06:59:40;22.20;54.20
44111;DHT22;29774;52.664;5.074;2022-07-23T07:02:07;22.20;54.10
44111;DHT22;29774;52.664;5.074;2022-07-23T07:04:32;22.20;52.90
44111;DHT22;29774;52.664;5.074;2022-07-23T07:06:58;22.20;54.00
44111;DHT22;29774;52.664;5.074;2022-07-23T07:09:23;22.20;54.00
44111;DHT22;29774;52.664;5.074;2022-07-23T07:11:49;22.20;54.10
44111;DHT22;29774;52.664;5.074;2022-07-23T07:14:15;22.20;53.90
44111;DHT22;29774;52.664;5.074;2022-07-23T07:16:40;22.20;54.20
44111;DHT22;29774;52.664;5.074;2022-07-23T07:19:06;22.20;54.00
44111;DHT22;29774;52.664;5.074;2022-07-23T07:21:31;22.20;54.10
44111;DHT22;29774;52.664;5.074;2022-07-23T07:23:57;22.20;53.90
44111;DHT22;29774;52.664;5.074;2022-07-23T07:26:23;22.20;53.40
44111;DHT22;29774;52.664;5.074;2022-07-23T07:28:49;22.20;54.10
44111;DHT22;29774;52.664;5.074;2022-07-23T07:31:14;22.20;53.40
44111;DHT22;29774;52.664;5.074;2022-07-23T07:33:40;22.20;53.90
44111;DHT22;29774;52.664;5.074;2022-07-23T07:36:06;22.30;53.70
44111;DHT22;29774;52.664;5.074;2022-07-23T07:38:31;22.40;53.50
44111;DHT22;29774;52.664;5.074;2022-07-23T07:40:57;22.30;53.70
44111;DHT22;29774;52.664;5.074;2022-07-23T07:43:23;22.30;51.60
44111;DHT22;29774;52.664;5.074;2022-07-23T07:45:48;22.30;54.00
44111;DHT22;29774;52.664;5.074;2022-07-23T07:48:14;22.50;53.50
44111;DHT22;29774;52.664;5.074;2022-07-23T07:50:39;22.60;53.30
44111;DHT22;29774;52.664;5.074;2022-07-23T07:53:05;22.60;53.20
44111;DHT22;29774;52.664;5.074;2022-07-23T07:55:30;22.60;53.20
44111;DHT22;29774;52.664;5.074;2022-07-23T07:57:57;22.70;53.10
44111;DHT22;29774;52.664;5.074;2022-07-23T08:00:22;22.70;53.20
44111;DHT22;29774;52.664;5.074;2022-07-23T08:02:53;22.70;53.10
44111;DHT22;29774;52.664;5.074;2022-07-23T08:05:21;22.80;52.50
44111;DHT22;29774;52.664;5.074;2022-07-23T08:07:46;22.80;52.90
44111;DHT22;29774;52.664;5.074;2022-07-23T08:10:12;22.80;52.80
44111;DHT22;29774;52.664;5.074;2022-07-23T08:12:40;22.80;53.00
44111;DHT22;29774;52.664;5.074;2022-07-23T08:15:07;22.80;53.10
44111;DHT22;29774;52.664;5.074;2022-07-23T08:17:33;22.80;52.90
44111;DHT22;29774;52.664;5.074;2022-07-23T08:19:58;22.80;52.90
44111;DHT22;29774;52.664;5.074;2022-07-23T08:22:24;22.80;52.90
44111;DHT22;29774;52.664;5.074;2022-07-23T08:24:49;22.90;52.90
44111;DHT22;29774;52.664;5.074;2022-07-23T08:27:15;23.00;53.00
44111;DHT22;29774;52.664;5.074;2022-07-23T08:29:40;23.00;52.70
44111;DHT22;29774;52.664;5.074;2022-07-23T08:32:06;23.20;52.10
44111;DHT22;29774;52.664;5.074;2022-07-23T08:34:31;23.00;53.10
44111;DHT22;29774;52.664;5.074;2022-07-23T08:36:57;22.90;54.00
44111;DHT22;29774;52.664;5.074;2022-07-23T08:39:22;23.10;53.40
44111;DHT22;29774;52.664;5.074;2022-07-23T08:41:48;23.20;54.10
44111;DHT22;29774;52.664;5.074;2022-07-23T08:44:16;23.10;53.20
44111;DHT22;29774;52.664;5.074;2022-07-23T08:46:42;23.30;52.50
44111;DHT22;29774;52.664;5.074;2022-07-23T08:49:08;23.30;52.50
44111;DHT22;29774;52.664;5.074;2022-07-23T08:51:34;23.40;51.90
44111;DHT22;29774;52.664;5.074;2022-07-23T08:54:00;23.70;48.30
44111;DHT22;29774;52.664;5.074;2022-07-23T08:56:26;23.70;54.00
44111;DHT22;29774;52.664;5.074;2022-07-23T08:58:53;23.70;47.60
44111;DHT22;29774;52.664;5.074;2022-07-23T09:01:19;24.10;53.40
44111;DHT22;29774;52.664;5.074;2022-07-23T09:03:45;24.10;56.10
44111;DHT22;29774;52.664;5.074;2022-07-23T09:06:10;23.70;54.70
44111;DHT22;29774;52.664;5.074;2022-07-23T09:08:41;23.70;51.60
44111;DHT22;29774;52.664;5.074;2022-07-23T09:11:09;23.70;52.50
44111;DHT22;29774;52.664;5.074;2022-07-23T09:13:42;24.10;49.30
44111;DHT22;29774;52.664;5.074;2022-07-23T09:16:27;24.10;50.20
44111;DHT22;29774;52.664;5.074;2022-07-23T09:19:04;24.50;46.90
44111;DHT22;29774;52.664;5.074;2022-07-23T09:21:32;25.20;46.20
44111;DHT22;29774;52.664;5.074;2022-07-23T09:24:04;25.30;47.00
44111;DHT22;29774;52.664;5.074;2022-07-23T09:34:19;24.70;49.50
44111;DHT22;29774;52.664;5.074;2022-07-23T09:36:46;24.10;50.10
44111;DHT22;29774;52.664;5.074;2022-07-23T09:39:13;24.20;51.20
44111;DHT22;29774;52.664;5.074;2022-07-23T09:41:42;24.00;51.60
44111;DHT22;29774;52.664;5.074;2022-07-23T09:44:13;23.90;51.90
44111;DHT22;29774;52.664;5.074;2022-07-23T09:46:39;24.00;52.00
44111;DHT22;29774;52.664;5.074;2022-07-23T09:49:31;24.00;52.00
44111;DHT22;29774;52.664;5.074;2022-07-23T09:52:00;24.10;51.70
44111;DHT22;29774;52.664;5.074;2022-07-23T09:54:30;24.10;51.90
44111;DHT22;29774;52.664;5.074;2022-07-23T09:59:34;24.10;51.80
44111;DHT22;29774;52.664;5.074;2022-07-23T10:02:00;24.20;51.70
44111;DHT22;29774;52.664;5.074;2022-07-23T10:04:28;24.00;51.50
44111;DHT22;29774;52.664;5.074;2022-07-23T10:06:57;23.90;51.50
44111;DHT22;29774;52.664;5.074;2022-07-23T10:09:35;23.90;51.90
44111;DHT22;29774;52.664;5.074;2022-07-23T10:12:03;24.00;51.80
44111;DHT22;29774;52.664;5.074;2022-07-23T10:14:50;24.30;47.90
44111;DHT22;29774;52.664;5.074;2022-07-23T10:17:16;24.70;46.50
44111;DHT22;29774;52.664;5.074;2022-07-23T10:19:43;24.80;49.30
44111;DHT22;29774;52.664;5.074;2022-07-23T10:22:20;24.50;50.30
44111;DHT22;29774;52.664;5.074;2022-07-23T10:27:59;24.40;50.90
44111;DHT22;29774;52.664;5.074;2022-07-23T10:36:39;24.60;50.70
44111;DHT22;29774;52.664;5.074;2022-07-23T10:39:08;24.60;50.90
44111;DHT22;29774;52.664;5.074;2022-07-23T10:41:39;24.50;51.10
44111;DHT22;29774;52.664;5.074;2022-07-23T10:44:21;24.60;50.80
44111;DHT22;29774;52.664;5.074;2022-07-23T10:49:33;24.60;51.30
44111;DHT22;29774;52.664;5.074;2022-07-23T10:54:52;25.90;47.50
44111;DHT22;29774;52.664;5.074;2022-07-23T10:57:19;24.90;50.40
44111;DHT22;29774;52.664;5.074;2022-07-23T11:02:49;25.60;45.70
44111;DHT22;29774;52.664;5.074;2022-07-23T11:05:24;26.10;47.00
44111;DHT22;29774;52.664;5.074;2022-07-23T11:08:16;26.40;44.40
44111;DHT22;29774;52.664;5.074;2022-07-23T11:10:52;25.00;50.10
44111;DHT22;29774;52.664;5.074;2022-07-23T11:32:04;24.90;50.60
44111;DHT22;29774;52.664;5.074;2022-07-23T11:37:00;24.90;51.10
44111;DHT22;29774;52.664;5.074;2022-07-23T11:39:27;24.80;51.30
44111;DHT22;29774;52.664;5.074;2022-07-23T11:41:54;25.80;47.10
44111;DHT22;29774;52.664;5.074;2022-07-23T11:44:39;25.50;49.10
44111;DHT22;29774;52.664;5.074;2022-07-23T11:47:09;25.00;50.70
44111;DHT22;29774;52.664;5.074;2022-07-23T11:49:35;25.00;50.70
44111;DHT22;29774;52.664;5.074;2022-07-23T11:52:09;25.80;48.10
44111;DHT22;29774;52.664;5.074;2022-07-23T11:54:46;25.50;48.70
44111;DHT22;29774;52.664;5.074;2022-07-23T11:57:12;25.20;50.20
44111;DHT22;29774;52.664;5.074;2022-07-23T11:59:38;25.10;50.50
44111;DHT22;29774;52.664;5.074;2022-07-23T12:02:05;25.10;50.60
44111;DHT22;29774;52.664;5.074;2022-07-23T12:04:44;25.10;50.70
44111;DHT22;29774;52.664;5.074;2022-07-23T12:07:31;25.20;50.60
44111;DHT22;29774;52.664;5.074;2022-07-23T12:10:09;25.20;50.40
44111;DHT22;29774;52.664;5.074;2022-07-23T12:12:37;25.20;50.60
44111;DHT22;29774;52.664;5.074;2022-07-23T12:15:03;25.20;50.50
44111;DHT22;29774;52.664;5.074;2022-07-23T12:17:32;25.20;50.60
44111;DHT22;29774;52.664;5.074;2022-07-23T12:19:59;25.20;50.60
44111;DHT22;29774;52.664;5.074;2022-07-23T12:22:26;25.20;50.50
44111;DHT22;29774;52.664;5.074;2022-07-23T12:25:05;25.30;48.80
44111;DHT22;29774;52.664;5.074;2022-07-23T12:27:31;25.50;49.80
44111;DHT22;29774;52.664;5.074;2022-07-23T12:29:57;25.40;50.10
44111;DHT22;29774;52.664;5.074;2022-07-23T12:32:25;25.50;50.00
44111;DHT22;29774;52.664;5.074;2022-07-23T12:35:12;25.60;49.70
44111;DHT22;29774;52.664;5.074;2022-07-23T12:37:40;25.70;49.40
44111;DHT22;29774;52.664;5.074;2022-07-23T12:43:09;26.10;48.40
44111;DHT22;29774;52.664;5.074;2022-07-23T12:45:49;26.00;48.90
44111;DHT22;29774;52.664;5.074;2022-07-23T12:48:30;25.70;49.50
44111;DHT22;29774;52.664;5.074;2022-07-23T12:51:03;25.80;49.50
44111;DHT22;29774;52.664;5.074;2022-07-23T12:53:45;25.50;50.10
44111;DHT22;29774;52.664;5.074;2022-07-23T12:56:12;25.60;50.20
44111;DHT22;29774;52.664;5.074;2022-07-23T12:58:45;25.80;49.50
44111;DHT22;29774;52.664;5.074;2022-07-23T13:06:38;26.20;48.60
44111;DHT22;29774;52.664;5.074;2022-07-23T13:09:09;25.70;49.80
44111;DHT22;29774;52.664;5.074;2022-07-23T13:11:36;26.20;48.70
44111;DHT22;29774;52.664;5.074;2022-07-23T13:14:02;26.00;49.60
44111;DHT22;29774;52.664;5.074;2022-07-23T13:16:29;26.20;48.80
44111;DHT22;29774;52.664;5.074;2022-07-23T13:18:56;26.10;49.00
44111;DHT22;29774;52.664;5.074;2022-07-23T13:21:22;26.60;47.80
44111;DHT22;29774;52.664;5.074;2022-07-23T13:23:50;26.00;48.70
44111;DHT22;29774;52.664;5.074;2022-07-23T13:26:16;26.40;48.60
44111;DHT22;29774;52.664;5.074;2022-07-23T13:28:45;26.80;47.50
44111;DHT22;29774;52.664;5.074;2022-07-23T13:31:10;26.30;48.60
44111;DHT22;29774;52.664;5.074;2022-07-23T13:33:36;26.20;49.10
44111;DHT22;29774;52.664;5.074;2022-07-23T13:36:03;26.00;48.80
44111;DHT22;29774;52.664;5.074;2022-07-23T13:38:29;26.30;48.90
44111;DHT22;29774;52.664;5.074;2022-07-23T13:40:55;25.90;49.90
44111;DHT22;29774;52.664;5.074;2022-07-23T13:43:23;25.70;50.60
44111;DHT22;29774;52.664;5.074;2022-07-23T13:45:49;25.90;50.10
44111;DHT22;29774;52.664;5.074;2022-07-23T13:48:15;25.90;50.10
44111;DHT22;29774;52.664;5.074;2022-07-23T13:50:44;26.20;49.50
44111;DHT22;29774;52.664;5.074;2022-07-23T13:53:12;26.00;49.90
44111;DHT22;29774;52.664;5.074;2022-07-23T13:55:39;26.10;49.60
44111;DHT22;29774;52.664;5.074;2022-07-23T13:58:05;26.10;49.50
44111;DHT22;29774;52.664;5.074;2022-07-23T14:00:32;26.30;49.40
44111;DHT22;29774;52.664;5.074;2022-07-23T14:02:59;26.30;48.90
44111;DHT22;29774;52.664;5.074;2022-07-23T14:05:25;26.20;49.60
44111;DHT22;29774;52.664;5.074;2022-07-23T14:07:51;26.40;48.60
44111;DHT22;29774;52.664;5.074;2022-07-23T14:10:18;26.70;47.70
44111;DHT22;29774;52.664;5.074;2022-07-23T14:12:45;26.70;46.90
44111;DHT22;29774;52.664;5.074;2022-07-23T14:15:11;26.40;49.00
44111;DHT22;29774;52.664;5.074;2022-07-23T14:17:39;26.30;49.10
44111;DHT22;29774;52.664;5.074;2022-07-23T14:20:06;26.40;48.20
44111;DHT22;29774;52.664;5.074;2022-07-23T14:22:32;26.20;49.40
44111;DHT22;29774;52.664;5.074;2022-07-23T14:24:58;26.20;49.90
44111;DHT22;29774;52.664;5.074;2022-07-23T14:27:24;26.20;49.80
44111;DHT22;29774;52.664;5.074;2022-07-23T14:29:50;26.20;50.00
44111;DHT22;29774;52.664;5.074;2022-07-23T14:32:16;25.80;50.50
44111;DHT22;29774;52.664;5.074;2022-07-23T14:34:42;25.70;51.50
44111;DHT22;29774;52.664;5.074;2022-07-23T14:37:08;25.80;51.20
44111;DHT22;29774;52.664;5.074;2022-07-23T14:39:34;25.80;51.00
44111;DHT22;29774;52.664;5.074;2022-07-23T14:42:00;25.80;50.90
44111;DHT22;29774;52.664;5.074;2022-07-23T14:44:25;25.70;51.20
44111;DHT22;29774;52.664;5.074;2022-07-23T14:46:51;25.60;50.10
44111;DHT22;29774;52.664;5.074;2022-07-23T14:49:18;25.50;51.50
44111;DHT22;29774;52.664;5.074;2022-07-23T14:51:43;25.70;51.40
44111;DHT22;29774;52.664;5.074;2022-07-23T14:54:10;25.70;51.40
44111;DHT22;29774;52.664;5.074;2022-07-23T14:56:36;25.70;50.80
44111;DHT22;29774;52.664;5.074;2022-07-23T14:59:05;25.60;51.60
44111;DHT22;29774;52.664;5.074;2022-07-23T15:01:31;25.70;51.40
44111;DHT22;29774;52.664;5.074;2022-07-23T15:03:57;25.50;51.90
44111;DHT22;29774;52.664;5.074;2022-07-23T15:06:22;25.60;51.70
44111;DHT22;29774;52.664;5.074;2022-07-23T15:08:48;25.50;51.60
44111;DHT22;29774;52.664;5.074;2022-07-23T15:11:14;25.50;51.80
44111;DHT22;29774;52.664;5.074;2022-07-23T15:13:39;25.50;51.10
44111;DHT22;29774;52.664;5.074;2022-07-23T15:16:06;25.30;52.10
44111;DHT22;29774;52.664;5.074;2022-07-23T15:18:31;25.40;52.00
44111;DHT22;29774;52.664;5.074;2022-07-23T15:20:57;25.00;51.40
44111;DHT22;29774;52.664;5.074;2022-07-23T15:23:23;25.10;52.20
44111;DHT22;29774;52.664;5.074;2022-07-23T15:25:49;25.20;51.30
44111;DHT22;29774;52.664;5.074;2022-07-23T15:28:14;25.30;52.20
44111;DHT22;29774;52.664;5.074;2022-07-23T15:30:40;25.30;52.30
44111;DHT22;29774;52.664;5.074;2022-07-23T15:33:06;25.40;49.90
44111;DHT22;29774;52.664;5.074;2022-07-23T15:35:32;25.30;52.20
44111;DHT22;29774;52.664;5.074;2022-07-23T15:37:58;25.10;51.90
44111;DHT22;29774;52.664;5.074;2022-07-23T15:40:23;25.00;52.40
44111;DHT22;29774;52.664;5.074;2022-07-23T15:42:49;25.00;53.20
44111;DHT22;29774;52.664;5.074;2022-07-23T15:45:15;24.50;52.90
44111;DHT22;29774;52.664;5.074;2022-07-23T15:47:41;24.20;54.10
44111;DHT22;29774;52.664;5.074;2022-07-23T15:50:07;24.50;53.60
44111;DHT22;29774;52.664;5.074;2022-07-23T15:52:33;24.70;53.20
44111;DHT22;29774;52.664;5.074;2022-07-23T15:54:59;24.70;53.20
44111;DHT22;29774;52.664;5.074;2022-07-23T15:57:24;25.10;52.50
44111;DHT22;29774;52.664;5.074;2022-07-23T15:59:50;25.20;51.00
44111;DHT22;29774;52.664;5.074;2022-07-23T16:02:16;25.10;52.00
44111;DHT22;29774;52.664;5.074;2022-07-23T16:04:42;25.20;52.40
44111;DHT22;29774;52.664;5.074;2022-07-23T16:07:07;25.10;51.20
44111;DHT22;29774;52.664;5.074;2022-07-23T16:09:33;25.00;52.30
44111;DHT22;29774;52.664;5.074;2022-07-23T16:11:59;24.70;53.20
44111;DHT22;29774;52.664;5.074;2022-07-23T16:14:25;24.80;53.20
44111;DHT22;29774;52.664;5.074;2022-07-23T16:16:51;24.40;54.00
44111;DHT22;29774;52.664;5.074;2022-07-23T16:19:16;24.90;53.60
44111;DHT22;29774;52.664;5.074;2022-07-23T16:21:42;25.30;52.60
44111;DHT22;29774;52.664;5.074;2022-07-23T16:24:08;25.40;52.40
44111;DHT22;29774;52.664;5.074;2022-07-23T16:26:33;25.40;51.90